createdAt,value
2023-03-27T00:05:41.133Z,2941.53687
2023-03-27T00:20:43.169Z,2338.01465
2023-03-27T00:35:45.183Z,1600.0946
2023-03-27T00:50:47.280Z,876.12152
2023-03-27T01:05:49.348Z,713.82983
2023-03-27T01:20:51.352Z,895.14008
2023-03-27T01:35:55.711Z,604.7901
2023-03-27T01:50:58.067Z,395.586
2023-03-27T02:06:00.365Z,149.61266
2023-03-27T02:21:02.361Z,35.50131
2023-03-27T02:36:04.798Z,2.53581
2023-03-27T02:51:06.979Z,0
2023-03-27T03:06:09.125Z,0
2023-03-27T03:21:11.280Z,0
2023-03-27T03:36:13.478Z,0
2023-03-27T03:51:15.742Z,0
2023-03-27T04:06:20.575Z,0
2023-03-27T04:21:23.289Z,0
2023-03-27T04:36:25.425Z,0
2023-03-27T04:51:27.693Z,0
2023-03-27T05:06:29.818Z,0
2023-03-27T05:21:31.923Z,0
2023-03-27T05:36:34.060Z,0
2023-03-27T05:51:36.214Z,0
2023-03-27T06:06:38.377Z,0
2023-03-27T06:21:41.043Z,0
2023-03-27T06:36:43.270Z,0
2023-03-27T06:51:45.466Z,0
2023-03-27T07:06:47.622Z,0
2023-03-27T07:21:49.709Z,0
2023-03-27T07:36:51.872Z,0
2023-03-27T07:51:53.994Z,0
2023-03-27T08:06:56.116Z,0
2023-03-27T08:21:58.287Z,0
2023-03-27T08:37:00.418Z,0
2023-03-27T08:52:02.670Z,0
2023-03-27T09:07:04.844Z,0
2023-03-27T09:22:07.352Z,0
2023-03-27T09:37:09.492Z,0
2023-03-27T09:52:11.663Z,0
2023-03-27T10:07:13.740Z,0
2023-03-27T10:22:15.851Z,0
2023-03-27T10:37:17.975Z,0
2023-03-27T10:52:20.069Z,0
2023-03-27T11:07:22.145Z,0
2023-03-27T11:22:24.247Z,0
2023-03-27T11:37:26.417Z,0
2023-03-27T11:52:28.508Z,0
2023-03-27T12:07:36.936Z,0
2023-03-27T12:22:40.416Z,0
2023-03-27T12:37:42.453Z,0
2023-03-27T12:52:44.523Z,0
2023-03-27T13:07:46.823Z,0
2023-03-27T13:22:48.910Z,7.60742
2023-03-27T13:37:50.985Z,73.53842
2023-03-27T13:52:53.142Z,280.20673
2023-03-27T14:07:55.322Z,621.27289
2023-03-27T14:22:57.426Z,732.84839
2023-03-27T14:37:59.532Z,988.96497
2023-03-27T14:53:01.730Z,1461.89307
2023-03-27T15:08:04.042Z,2572.5769
2023-03-27T15:23:06.207Z,8441.70312
2023-03-27T15:38:08.598Z,33685.66797
2023-03-27T15:53:11.100Z,39023.54297
2023-03-27T16:08:13.204Z,15268.09766
2023-03-27T16:23:15.470Z,22654.9043
2023-03-27T16:38:17.584Z,19883.26758
2023-03-27T16:53:19.702Z,14892.79785
2023-03-27T17:08:21.874Z,11691.34082
2023-03-27T17:23:23.969Z,11015.54785
2023-03-27T17:38:26.232Z,9568.87012
2023-03-27T17:53:28.533Z,5716.97803
2023-03-27T18:08:30.672Z,5582.58057
2023-03-27T18:23:32.771Z,6231.74707
2023-03-27T18:38:34.923Z,6640.01221
2023-03-27T18:53:37.046Z,10451.33105
2023-03-27T19:08:39.190Z,5288.42676
2023-03-27T19:23:41.311Z,4375.53613
2023-03-27T19:38:43.444Z,3604.65063
2023-03-27T19:53:45.818Z,3165.95581
2023-03-27T20:08:48.084Z,3291.47827
2023-03-27T20:23:50.216Z,4490.91504
2023-03-27T20:38:52.363Z,4856.07178
2023-03-27T20:53:54.504Z,4900.44824
2023-03-27T21:08:56.634Z,4118.15137
2023-03-27T21:23:58.963Z,4236.06641
2023-03-27T21:39:01.176Z,6401.64648
2023-03-27T21:54:03.261Z,5317.58838
2023-03-27T22:09:05.362Z,5471.00488
2023-03-27T22:24:07.557Z,5415.21729
2023-03-27T22:39:09.865Z,4137.16992
2023-03-27T22:54:12.016Z,12615.64258
2023-03-27T23:09:14.382Z,13146.89453
2023-03-27T23:24:16.517Z,4705.19092
2023-03-27T23:39:18.563Z,3503.21826
2023-03-27T23:54:20.763Z,3055.64819
